sensor_id;sensor_type;location;lat;lon;timestamp;pressure;altitude;pressure_sealevel;temperature;humidity
37764;BME280;23602;51.084;7.090;2023-03-25T00:02:24;99059.16;;;7.91;100.00
37764;BME280;23602;51.084;7.090;2023-03-25T00:04:51;99084.88;;;7.92;100.00
37764;BME280;23602;51.084;7.090;2023-03-25T00:07:20;99079.38;;;7.87;100.00
37764;BME280;23602;51.084;7.090;2023-03-25T00:09:46;99077.06;;;7.91;100.00
37764;BME280;23602;51.084;7.090;2023-03-25T00:12:18;99061.41;;;7.94;100.00
37764;BME280;23602;51.084;7.090;2023-03-25T00:14:44;99061.13;;;8.02;100.00
37764;BME280;23602;51.084;7.090;2023-03-25T00:17:18;99059.91;;;7.98;100.00
37764;BME280;23602;51.084;7.090;2023-03-25T00:19:44;99051.72;;;7.93;100.00
37764;BME280;23602;51.084;7.090;2023-03-25T00:22:09;99045.94;;;7.96;100.00
37764;BME280;23602;51.084;7.090;2023-03-25T00:24:35;99041.09;;;7.87;100.00
37764;BME280;23602;51.084;7.090;2023-03-25T00:27:00;99044.94;;;7.73;100.00
37764;BME280;23602;51.084;7.090;2023-03-25T00:29:26;99052.13;;;7.72;100.00
37764;BME280;23602;51.084;7.090;2023-03-25T00:31:52;99038.16;;;7.70;100.00
37764;BME280;23602;51.084;7.090;2023-03-25T00:34:17;99041.78;;;7.76;100.00
37764;BME280;23602;51.084;7.090;2023-03-25T00:36:44;99039.09;;;7.82;100.00
37764;BME280;23602;51.084;7.090;2023-03-25T00:39:09;99018.06;;;7.86;100.00
37764;BME280;23602;51.084;7.090;2023-03-25T00:41:35;99028.97;;;7.84;100.00
37764;BME280;23602;51.084;7.090;2023-03-25T00:44:01;99019.94;;;7.85;100.00
37764;BME280;23602;51.084;7.090;2023-03-25T00:46:28;99021.56;;;7.86;100.00
37764;BME280;23602;51.084;7.090;2023-03-25T00:48:54;99013.53;;;7.86;100.00
37764;BME280;23602;51.084;7.090;2023-03-25T00:51:20;99018.44;;;7.89;100.00
37764;BME280;23602;51.084;7.090;2023-03-25T00:53:46;99016.59;;;7.90;100.00
37764;BME280;23602;51.084;7.090;2023-03-25T00:56:12;99022.59;;;7.85;100.00
37764;BME280;23602;51.084;7.090;2023-03-25T00:58:37;99014.13;;;7.88;100.00
37764;BME280;23602;51.084;7.090;2023-03-25T01:01:13;98997.63;;;7.91;100.00
37764;BME280;23602;51.084;7.090;2023-03-25T01:03:40;99002.78;;;7.93;100.00
37764;BME280;23602;51.084;7.090;2023-03-25T01:06:16;99006.47;;;7.92;100.00
37764;BME280;23602;51.084;7.090;2023-03-25T01:08:43;98986.94;;;7.91;100.00
37764;BME280;23602;51.084;7.090;2023-03-25T01:11:18;98988.16;;;7.95;100.00
37764;BME280;23602;51.084;7.090;2023-03-25T01:13:44;98972.84;;;8.02;100.00
37764;BME280;23602;51.084;7.090;2023-03-25T01:16:10;98970.91;;;8.09;100.00
37764;BME280;23602;51.084;7.090;2023-03-25T01:18:36;98979.38;;;8.06;100.00
37764;BME280;23602;51.084;7.090;2023-03-25T01:21:05;98969.44;;;8.13;100.00
37764;BME280;23602;51.084;7.090;2023-03-25T01:23:31;98966.78;;;8.13;100.00
37764;BME280;23602;51.084;7.090;2023-03-25T01:25:59;98960.00;;;8.11;100.00
37764;BME280;23602;51.084;7.090;2023-03-25T01:28:25;98962.69;;;8.11;100.00
37764;BME280;23602;51.084;7.090;2023-03-25T01:31:00;98979.16;;;8.08;100.00
37764;BME280;23602;51.084;7.090;2023-03-25T01:33:26;98978.94;;;8.09;100.00
37764;BME280;23602;51.084;7.090;2023-03-25T01:35:51;98968.91;;;8.05;100.00
37764;BME280;23602;51.084;7.090;2023-03-25T01:38:16;98966.66;;;8.02;100.00
37764;BME280;23602;51.084;7.090;2023-03-25T01:40:44;98961.13;;;8.03;100.00
37764;BME280;23602;51.084;7.090;2023-03-25T01:43:09;98978.34;;;8.07;100.00
37764;BME280;23602;51.084;7.090;2023-03-25T01:45:37;98955.25;;;8.13;100.00
37764;BME280;23602;51.084;7.090;2023-03-25T01:50:30;98945.34;;;8.13;100.00
37764;BME280;23602;51.084;7.090;2023-03-25T01:52:56;98952.78;;;8.11;100.00
37764;BME280;23602;51.084;7.090;2023-03-25T01:55:22;98948.84;;;8.14;100.00
37764;BME280;23602;51.084;7.090;2023-03-25T01:57:48;98943.13;;;8.10;100.00
37764;BME280;23602;51.084;7.090;2023-03-25T02:00:18;98944.44;;;8.19;100.00
37764;BME280;23602;51.084;7.090;2023-03-25T02:02:46;98933.41;;;8.16;100.00
37764;BME280;23602;51.084;7.090;2023-03-25T02:05:17;98942.88;;;8.12;100.00
37764;BME280;23602;51.084;7.090;2023-03-25T02:07:45;98939.03;;;8.08;100.00
37764;BME280;23602;51.084;7.090;2023-03-25T02:10:12;98943.19;;;8.04;100.00
37764;BME280;23602;51.084;7.090;2023-03-25T02:12:37;98929.59;;;8.05;100.00
37764;BME280;23602;51.084;7.090;2023-03-25T02:15:05;98928.09;;;8.09;100.00
37764;BME280;23602;51.084;7.090;2023-03-25T02:17:38;98930.63;;;8.04;100.00
37764;BME280;23602;51.084;7.090;2023-03-25T02:25:35;98918.47;;;8.08;100.00
37764;BME280;23602;51.084;7.090;2023-03-25T02:31:10;98943.84;;;7.99;100.00
37764;BME280;23602;51.084;7.090;2023-03-25T02:44:01;98940.63;;;7.91;100.00
37764;BME280;23602;51.084;7.090;2023-03-25T02:46:28;98954.63;;;7.93;100.00
37764;BME280;23602;51.084;7.090;2023-03-25T02:48:57;98947.78;;;7.97;100.00
37764;BME280;23602;51.084;7.090;2023-03-25T02:51:29;98956.25;;;7.94;100.00
37764;BME280;23602;51.084;7.090;2023-03-25T02:53:57;98963.91;;;7.90;100.00
37764;BME280;23602;51.084;7.090;2023-03-25T02:56:25;98967.63;;;7.89;100.00
37764;BME280;23602;51.084;7.090;2023-03-25T02:58:51;98973.41;;;7.86;100.00
37764;BME280;23602;51.084;7.090;2023-03-25T03:01:19;98976.66;;;7.88;100.00
37764;BME280;23602;51.084;7.090;2023-03-25T03:03:46;98976.09;;;7.86;100.00
37764;BME280;23602;51.084;7.090;2023-03-25T03:06:14;98975.88;;;7.88;100.00
37764;BME280;23602;51.084;7.090;2023-03-25T03:11:19;98958.56;;;7.90;100.00
37764;BME280;23602;51.084;7.090;2023-03-25T03:16:27;98951.13;;;7.92;100.00
37764;BME280;23602;51.084;7.090;2023-03-25T03:21:40;98933.28;;;7.86;100.00
37764;BME280;23602;51.084;7.090;2023-03-25T03:26:40;98959.59;;;7.89;100.00
37764;BME280;23602;51.084;7.090;2023-03-25T03:29:17;98950.75;;;7.89;100.00
37764;BME280;23602;51.084;7.090;2023-03-25T03:31:51;98952.84;;;7.87;100.00
37764;BME280;23602;51.084;7.090;2023-03-25T03:34:40;98937.03;;;7.85;100.00
37764;BME280;23602;51.084;7.090;2023-03-25T03:37:13;98939.03;;;7.90;100.00
37764;BME280;23602;51.084;7.090;2023-03-25T03:39:40;98932.03;;;7.89;100.00
37764;BME280;23602;51.084;7.090;2023-03-25T03:42:28;98939.03;;;7.90;100.00
37764;BME280;23602;51.084;7.090;2023-03-25T03:44:52;98929.59;;;7.87;100.00
37764;BME280;23602;51.084;7.090;2023-03-25T03:47:21;98940.50;;;7.86;100.00
37764;BME280;23602;51.084;7.090;2023-03-25T03:49:52;98944.13;;;7.91;100.00
37764;BME280;23602;51.084;7.090;2023-03-25T03:52:21;98951.13;;;7.92;100.00
37764;BME280;23602;51.084;7.090;2023-03-25T03:57:38;98954.91;;;7.85;100.00
37764;BME280;23602;51.084;7.090;2023-03-25T04:04:59;98958.09;;;7.93;100.00
37764;BME280;23602;51.084;7.090;2023-03-25T04:08:00;98949.50;;;7.91;100.00
37764;BME280;23602;51.084;7.090;2023-03-25T04:10:42;98947.41;;;7.93;100.00
37764;BME280;23602;51.084;7.090;2023-03-25T04:13:10;98943.94;;;7.93;100.00
37764;BME280;23602;51.084;7.090;2023-03-25T04:15:38;98940.44;;;7.92;100.00
37764;BME280;23602;51.084;7.090;2023-03-25T04:18:03;98948.66;;;7.91;100.00
37764;BME280;23602;51.084;7.090;2023-03-25T04:20:29;98947.06;;;7.90;100.00
37764;BME280;23602;51.084;7.090;2023-03-25T04:22:58;98940.44;;;7.92;100.00
37764;BME280;23602;51.084;7.090;2023-03-25T04:25:23;98942.53;;;7.90;100.00
37764;BME280;23602;51.084;7.090;2023-03-25T04:27:49;98949.50;;;7.91;100.00
37764;BME280;23602;51.084;7.090;2023-03-25T04:30:17;98948.75;;;7.84;100.00
37764;BME280;23602;51.084;7.090;2023-03-25T04:32:44;98952.44;;;7.83;100.00
37764;BME280;23602;51.084;7.090;2023-03-25T04:35:16;98937.47;;;7.82;100.00
37764;BME280;23602;51.084;7.090;2023-03-25T04:37:42;98942.72;;;7.89;100.00
37764;BME280;23602;51.084;7.090;2023-03-25T04:40:13;98940.28;;;7.87;100.00
37764;BME280;23602;51.084;7.090;2023-03-25T04:42:40;98941.97;;;7.82;100.00
37764;BME280;23602;51.084;7.090;2023-03-25T04:45:07;98934.41;;;7.79;100.00
37764;BME280;23602;51.084;7.090;2023-03-25T04:47:38;98942.84;;;7.76;100.00
37764;BME280;23602;51.084;7.090;2023-03-25T04:50:09;98949.03;;;7.76;100.00
37764;BME280;23602;51.084;7.090;2023-03-25T04:52:40;98958.09;;;7.75;100.00
37764;BME280;23602;51.084;7.090;2023-03-25T04:55:05;98934.03;;;7.75;100.00
37764;BME280;23602;51.084;7.090;2023-03-25T04:57:31;98928.03;;;7.80;100.00
37764;BME280;23602;51.084;7.090;2023-03-25T04:59:56;98937.59;;;7.87;100.00
37764;BME280;23602;51.084;7.090;2023-03-25T05:02:22;98930.25;;;7.83;100.00
37764;BME280;23602;51.084;7.090;2023-03-25T05:04:48;98929.28;;;7.77;100.00
37764;BME280;23602;51.084;7.090;2023-03-25T05:07:13;98930.31;;;7.76;100.00
37764;BME280;23602;51.084;7.090;2023-03-25T05:09:40;98925.50;;;7.85;100.00
37764;BME280;23602;51.084;7.090;2023-03-25T05:12:05;98916.13;;;7.94;100.00
37764;BME280;23602;51.084;7.090;2023-03-25T05:14:35;98914.13;;;7.89;100.00
37764;BME280;23602;51.084;7.090;2023-03-25T05:17:00;98915.81;;;7.84;100.00
37764;BME280;23602;51.084;7.090;2023-03-25T05:19:26;98920.34;;;7.83;100.00
37764;BME280;23602;51.084;7.090;2023-03-25T05:21:52;98924.25;;;7.87;100.00
37764;BME280;23602;51.084;7.090;2023-03-25T05:24:20;98925.25;;;7.86;100.00
37764;BME280;23602;51.084;7.090;2023-03-25T05:26:45;98927.59;;;7.83;100.00
37764;BME280;23602;51.084;7.090;2023-03-25T05:29:11;98920.00;;;7.80;100.00
37764;BME280;23602;51.084;7.090;2023-03-25T05:31:43;98920.81;;;7.80;100.00
37764;BME280;23602;51.084;7.090;2023-03-25T05:34:09;98925.69;;;7.83;100.00
37764;BME280;23602;51.084;7.090;2023-03-25T05:36:35;98935.81;;;7.81;100.00
37764;BME280;23602;51.084;7.090;2023-03-25T05:39:00;98916.88;;;7.83;100.00
37764;BME280;23602;51.084;7.090;2023-03-25T05:41:28;98922.00;;;7.84;100.00
37764;BME280;23602;51.084;7.090;2023-03-25T05:43:57;98917.47;;;7.85;100.00
37764;BME280;23602;51.084;7.090;2023-03-25T05:46:24;98919.03;;;7.92;100.00
37764;BME280;23602;51.084;7.090;2023-03-25T05:48:49;98936.13;;;7.91;100.00
37764;BME280;23602;51.084;7.090;2023-03-25T05:51:17;98948.91;;;7.89;100.00
37764;BME280;23602;51.084;7.090;2023-03-25T05:53:46;98939.69;;;7.85;100.00
37764;BME280;23602;51.084;7.090;2023-03-25T05:56:14;98943.41;;;7.84;100.00
37764;BME280;23602;51.084;7.090;2023-03-25T05:58:41;98931.34;;;7.93;100.00
37764;BME280;23602;51.084;7.090;2023-03-25T06:01:08;98940.78;;;7.96;100.00
37764;BME280;23602;51.084;7.090;2023-03-25T06:03:34;98924.69;;;8.02;100.00
37764;BME280;23602;51.084;7.090;2023-03-25T06:06:00;98917.25;;;8.04;100.00
37764;BME280;23602;51.084;7.090;2023-03-25T06:08:26;98923.44;;;8.05;100.00
37764;BME280;23602;51.084;7.090;2023-03-25T06:10:56;98920.16;;;8.03;100.00
37764;BME280;23602;51.084;7.090;2023-03-25T06:13:25;98929.81;;;8.04;100.00
37764;BME280;23602;51.084;7.090;2023-03-25T06:15:50;98928.78;;;8.05;100.00
37764;BME280;23602;51.084;7.090;2023-03-25T06:18:20;98924.84;;;8.07;100.00
37764;BME280;23602;51.084;7.090;2023-03-25T06:20:48;98926.34;;;8.03;100.00
37764;BME280;23602;51.084;7.090;2023-03-25T06:23:15;98940.31;;;8.05;100.00
37764;BME280;23602;51.084;7.090;2023-03-25T06:25:41;98953.72;;;7.99;100.00
37764;BME280;23602;51.084;7.090;2023-03-25T06:28:06;98964.78;;;7.84;100.00
37764;BME280;23602;51.084;7.090;2023-03-25T06:30:32;98958.53;;;7.72;100.00
37764;BME280;23602;51.084;7.090;2023-03-25T06:32:57;98975.28;;;7.61;100.00
37764;BME280;23602;51.084;7.090;2023-03-25T06:35:30;98996.34;;;7.51;100.00
37764;BME280;23602;51.084;7.090;2023-03-25T06:37:56;98985.31;;;7.41;100.00
37764;BME280;23602;51.084;7.090;2023-03-25T06:40:24;98976.38;;;7.29;100.00
37764;BME280;23602;51.084;7.090;2023-03-25T06:42:49;99006.44;;;7.24;100.00
37764;BME280;23602;51.084;7.090;2023-03-25T06:45:15;99017.13;;;7.24;100.00
37764;BME280;23602;51.084;7.090;2023-03-25T06:47:40;99018.56;;;7.20;100.00
37764;BME280;23602;51.084;7.090;2023-03-25T06:50:06;99019.16;;;7.22;100.00
37764;BME280;23602;51.084;7.090;2023-03-25T06:52:32;99017.13;;;7.24;100.00
37764;BME280;23602;51.084;7.090;2023-03-25T06:54:57;99029.22;;;7.27;100.00
37764;BME280;23602;51.084;7.090;2023-03-25T06:57:23;99033.31;;;7.29;100.00
37764;BME280;23602;51.084;7.090;2023-03-25T06:59:48;99029.00;;;7.28;100.00
37764;BME280;23602;51.084;7.090;2023-03-25T07:02:14;99032.66;;;7.34;100.00
37764;BME280;23602;51.084;7.090;2023-03-25T07:04:39;99030.75;;;7.41;100.00
37764;BME280;23602;51.084;7.090;2023-03-25T07:07:05;99020.84;;;7.48;100.00
37764;BME280;23602;51.084;7.090;2023-03-25T07:09:30;99019.72;;;7.62;100.00
37764;BME280;23602;51.084;7.090;2023-03-25T07:11:56;99017.03;;;7.62;100.00
37764;BME280;23602;51.084;7.090;2023-03-25T07:14:21;98998.69;;;7.65;100.00
37764;BME280;23602;51.084;7.090;2023-03-25T07:16:46;98993.91;;;7.74;100.00
37764;BME280;23602;51.084;7.090;2023-03-25T07:19:14;99015.28;;;7.74;100.00
37764;BME280;23602;51.084;7.090;2023-03-25T07:21:40;99003.09;;;7.78;100.00
37764;BME280;23602;51.084;7.090;2023-03-25T07:24:05;99007.19;;;7.81;100.00
37764;BME280;23602;51.084;7.090;2023-03-25T07:26:31;99006.91;;;7.89;100.00
37764;BME280;23602;51.084;7.090;2023-03-25T07:28:56;98986.13;;;7.91;100.00
37764;BME280;23602;51.084;7.090;2023-03-25T07:31:22;98989.91;;;8.01;100.00
37764;BME280;23602;51.084;7.090;2023-03-25T07:33:47;98990.38;;;8.16;100.00
37764;BME280;23602;51.084;7.090;2023-03-25T07:36:13;98990.38;;;8.16;100.00
37764;BME280;23602;51.084;7.090;2023-03-25T07:38:41;98993.22;;;8.21;100.00
37764;BME280;23602;51.084;7.090;2023-03-25T07:41:07;99002.25;;;8.27;100.00
37764;BME280;23602;51.084;7.090;2023-03-25T07:43:33;99014.16;;;8.31;100.00
37764;BME280;23602;51.084;7.090;2023-03-25T07:45:58;99014.06;;;8.38;100.00
37764;BME280;23602;51.084;7.090;2023-03-25T07:48:24;98994.38;;;8.32;100.00
37764;BME280;23602;51.084;7.090;2023-03-25T07:50:50;99003.22;;;8.33;100.00
37764;BME280;23602;51.084;7.090;2023-03-25T07:53:16;99009.97;;;8.35;100.00
37764;BME280;23602;51.084;7.090;2023-03-25T07:55:41;98994.16;;;8.34;100.00
37764;BME280;23602;51.084;7.090;2023-03-25T07:58:07;99000.31;;;8.34;100.00
37764;BME280;23602;51.084;7.090;2023-03-25T08:00:32;98997.28;;;8.31;100.00
37764;BME280;23602;51.084;7.090;2023-03-25T08:02:58;99019.66;;;8.36;100.00
37764;BME280;23602;51.084;7.090;2023-03-25T08:05:24;98997.44;;;8.36;100.00
37764;BME280;23602;51.084;7.090;2023-03-25T08:07:50;98995.09;;;8.39;100.00
37764;BME280;23602;51.084;7.090;2023-03-25T08:10:15;99011.53;;;8.43;100.00
37764;BME280;23602;51.084;7.090;2023-03-25T08:12:41;99030.13;;;8.38;100.00
37764;BME280;23602;51.084;7.090;2023-03-25T08:15:09;99025.81;;;8.37;100.00
37764;BME280;23602;51.084;7.090;2023-03-25T08:17:41;99038.91;;;8.45;100.00
37764;BME280;23602;51.084;7.090;2023-03-25T08:20:06;99042.47;;;8.57;100.00
37764;BME280;23602;51.084;7.090;2023-03-25T08:22:32;99023.28;;;8.60;100.00
37764;BME280;23602;51.084;7.090;2023-03-25T08:24:57;99017.94;;;8.60;100.00
37764;BME280;23602;51.084;7.090;2023-03-25T08:27:23;99017.56;;;8.56;100.00
37764;BME280;23602;51.084;7.090;2023-03-25T08:29:48;99028.06;;;8.58;100.00
37764;BME280;23602;51.084;7.090;2023-03-25T08:32:25;99023.97;;;8.55;100.00
37764;BME280;23602;51.084;7.090;2023-03-25T08:34:51;99026.88;;;8.54;100.00
37764;BME280;23602;51.084;7.090;2023-03-25T08:37:17;99021.22;;;8.62;100.00
37764;BME280;23602;51.084;7.090;2023-03-25T08:39:43;99016.16;;;8.72;100.00
37764;BME280;23602;51.084;7.090;2023-03-25T08:42:09;99025.69;;;8.98;100.00
37764;BME280;23602;51.084;7.090;2023-03-25T08:44:35;99015.91;;;8.92;100.00
37764;BME280;23602;51.084;7.090;2023-03-25T08:47:01;99014.34;;;8.84;100.00
37764;BME280;23602;51.084;7.090;2023-03-25T08:49:26;99009.25;;;8.94;100.00
37764;BME280;23602;51.084;7.090;2023-03-25T08:51:52;99015.94;;;9.03;100.00
37764;BME280;23602;51.084;7.090;2023-03-25T08:54:17;99004.53;;;9.08;100.00
37764;BME280;23602;51.084;7.090;2023-03-25T08:56:43;98999.16;;;9.37;100.00
37764;BME280;23602;51.084;7.090;2023-03-25T08:59:08;99008.50;;;9.46;100.00
37764;BME280;23602;51.084;7.090;2023-03-25T09:01:35;99004.34;;;9.21;100.00
37764;BME280;23602;51.084;7.090;2023-03-25T09:04:01;99008.44;;;9.23;100.00
37764;BME280;23602;51.084;7.090;2023-03-25T09:06:27;99014.09;;;9.15;100.00
37764;BME280;23602;51.084;7.090;2023-03-25T09:08:54;99005.28;;;9.15;100.00
37764;BME280;23602;51.084;7.090;2023-03-25T09:11:28;99004.34;;;9.21;100.00
37764;BME280;23602;51.084;7.090;2023-03-25T09:13:53;98997.25;;;9.26;100.00
37764;BME280;23602;51.084;7.090;2023-03-25T09:16:22;99009.63;;;9.27;100.00
37764;BME280;23602;51.084;7.090;2023-03-25T09:18:48;99001.75;;;9.56;100.00
37764;BME280;23602;51.084;7.090;2023-03-25T09:21:15;98999.09;;;9.67;100.00
37764;BME280;23602;51.084;7.090;2023-03-25T09:23:40;99005.53;;;10.01;100.00
37764;BME280;23602;51.084;7.090;2023-03-25T09:26:08;99012.63;;;10.07;100.00
37764;BME280;23602;51.084;7.090;2023-03-25T09:28:37;99003.53;;;10.08;100.00
37764;BME280;23602;51.084;7.090;2023-03-25T09:31:03;99000.41;;;10.34;100.00
37764;BME280;23602;51.084;7.090;2023-03-25T09:33:40;99001.56;;;10.38;100.00
37764;BME280;23602;51.084;7.090;2023-03-25T09:36:05;99004.38;;;10.32;100.00
37764;BME280;23602;51.084;7.090;2023-03-25T09:38:32;98996.66;;;10.35;100.00
37764;BME280;23602;51.084;7.090;2023-03-25T09:40:57;99006.44;;;10.53;100.00
37764;BME280;23602;51.084;7.090;2023-03-25T09:46:11;98990.81;;;10.50;100.00
37764;BME280;23602;51.084;7.090;2023-03-25T09:48:37;99000.41;;;10.34;100.00
37764;BME280;23602;51.084;7.090;2023-03-25T09:53:44;98999.06;;;10.60;100.00
37764;BME280;23602;51.084;7.090;2023-03-25T09:56:15;99007.81;;;10.67;100.00
37764;BME280;23602;51.084;7.090;2023-03-25T09:59:04;98997.44;;;10.59;100.00
37764;BME280;23602;51.084;7.090;2023-03-25T10:01:50;98998.63;;;10.51;100.00
37764;BME280;23602;51.084;7.090;2023-03-25T10:04:33;98993.13;;;10.46;100.00
37764;BME280;23602;51.084;7.090;2023-03-25T10:10:01;99005.34;;;10.14;100.00
37764;BME280;23602;51.084;7.090;2023-03-25T10:23:25;99008.91;;;10.43;100.00
37764;BME280;23602;51.084;7.090;2023-03-25T10:25:55;99014.16;;;10.38;100.00
37764;BME280;23602;51.084;7.090;2023-03-25T10:28:32;99012.56;;;10.13;100.00
37764;BME280;23602;51.084;7.090;2023-03-25T10:31:19;99009.16;;;10.18;100.00
37764;BME280;23602;51.084;7.090;2023-03-25T10:34:12;99004.94;;;10.22;100.00
37764;BME280;23602;51.084;7.090;2023-03-25T10:36:44;99027.81;;;10.01;100.00
37764;BME280;23602;51.084;7.090;2023-03-25T10:39:20;99048.31;;;9.73;100.00
37764;BME280;23602;51.084;7.090;2023-03-25T10:41:56;99056.56;;;9.60;100.00
37764;BME280;23602;51.084;7.090;2023-03-25T10:44:23;99045.19;;;9.76;100.00
37764;BME280;23602;51.084;7.090;2023-03-25T10:46:58;99029.81;;;10.06;100.00
37764;BME280;23602;51.084;7.090;2023-03-25T10:49:27;99036.59;;;10.20;100.00
37764;BME280;23602;51.084;7.090;2023-03-25T10:51:54;99017.47;;;10.17;100.00
37764;BME280;23602;51.084;7.090;2023-03-25T10:54:23;99024.81;;;10.21;100.00
37764;BME280;23602;51.084;7.090;2023-03-25T10:57:04;99016.75;;;10.21;100.00
37764;BME280;23602;51.084;7.090;2023-03-25T10:59:36;99024.34;;;10.24;100.00
37764;BME280;23602;51.084;7.090;2023-03-25T11:02:18;99022.94;;;10.22;100.00
37764;BME280;23602;51.084;7.090;2023-03-25T11:04:45;99033.66;;;10.10;100.00
37764;BME280;23602;51.084;7.090;2023-03-25T11:07:14;99043.09;;;10.01;100.00
37764;BME280;23602;51.084;7.090;2023-03-25T11:09:40;99040.31;;;9.96;100.00
37764;BME280;23602;51.084;7.090;2023-03-25T11:12:09;99032.59;;;9.99;100.00
37764;BME280;23602;51.084;7.090;2023-03-25T11:14:38;99026.31;;;10.17;100.00
37764;BME280;23602;51.084;7.090;2023-03-25T11:17:09;99019.34;;;10.16;100.00
37764;BME280;23602;51.084;7.090;2023-03-25T11:25:15;99050.50;;;10.29;100.00
37764;BME280;23602;51.084;7.090;2023-03-25T11:27:47;99031.03;;;10.73;100.00
37764;BME280;23602;51.084;7.090;2023-03-25T11:30:17;99031.84;;;10.85;100.00
37764;BME280;23602;51.084;7.090;2023-03-25T11:32:49;99033.56;;;10.91;100.00
37764;BME280;23602;51.084;7.090;2023-03-25T11:35:24;99033.22;;;10.88;100.00
37764;BME280;23602;51.084;7.090;2023-03-25T11:37:59;99029.72;;;10.75;100.00
37764;BME280;23602;51.084;7.090;2023-03-25T11:40:28;99034.22;;;10.58;100.00
37764;BME280;23602;51.084;7.090;2023-03-25T11:42:55;99037.66;;;10.42;100.00
37764;BME280;23602;51.084;7.090;2023-03-25T11:45:35;99042.56;;;10.34;100.00
37764;BME280;23602;51.084;7.090;2023-03-25T11:48:23;99046.03;;;10.46;100.00
37764;BME280;23602;51.084;7.090;2023-03-25T11:51:00;99039.63;;;10.35;100.00
37764;BME280;23602;51.084;7.090;2023-03-25T11:53:30;99034.56;;;10.50;100.00
37764;BME280;23602;51.084;7.090;2023-03-25T11:56:19;99029.47;;;10.37;100.00
37764;BME280;23602;51.084;7.090;2023-03-25T11:58:41;99050.34;;;10.35;100.00
37764;BME280;23602;51.084;7.090;2023-03-25T12:01:29;99050.59;;;10.22;100.00
37764;BME280;23602;51.084;7.090;2023-03-25T12:07:00;99061.06;;;9.89;100.00
37764;BME280;23602;51.084;7.090;2023-03-25T12:09:52;99063.50;;;10.02;100.00
37764;BME280;23602;51.084;7.090;2023-03-25T12:12:29;99048.50;;;10.12;100.00
37764;BME280;23602;51.084;7.090;2023-03-25T12:15:10;99048.94;;;10.09;100.00
37764;BME280;23602;51.084;7.090;2023-03-25T12:17:55;99030.13;;;10.09;100.00
37764;BME280;23602;51.084;7.090;2023-03-25T12:31:03;99025.69;;;9.92;100.00
37764;BME280;23602;51.084;7.090;2023-03-25T12:33:39;99030.97;;;9.98;100.00
37764;BME280;23602;51.084;7.090;2023-03-25T12:46:55;99021.19;;;10.04;100.00
37764;BME280;23602;51.084;7.090;2023-03-25T12:49:28;99008.59;;;10.16;100.00
37764;BME280;23602;51.084;7.090;2023-03-25T12:57:12;99018.50;;;10.39;100.00
37764;BME280;23602;51.084;7.090;2023-03-25T13:02:33;98990.97;;;10.71;100.00
37764;BME280;23602;51.084;7.090;2023-03-25T13:07:41;98977.94;;;11.36;100.00
37764;BME280;23602;51.084;7.090;2023-03-25T13:10:24;98973.31;;;11.49;100.00
37764;BME280;23602;51.084;7.090;2023-03-25T13:12:53;98976.06;;;11.37;100.00
37764;BME280;23602;51.084;7.090;2023-03-25T13:15:23;98971.34;;;11.44;100.00
37764;BME280;23602;51.084;7.090;2023-03-25T13:17:52;98983.81;;;11.50;100.00
37764;BME280;23602;51.084;7.090;2023-03-25T13:20:21;98971.41;;;11.32;100.00
37764;BME280;23602;51.084;7.090;2023-03-25T13:23:10;98971.06;;;11.29;100.00
37764;BME280;23602;51.084;7.090;2023-03-25T13:25:42;98966.34;;;11.19;100.00
37764;BME280;23602;51.084;7.090;2023-03-25T13:28:23;98969.56;;;11.05;100.00
37764;BME280;23602;51.084;7.090;2023-03-25T13:30:51;98978.50;;;10.94;100.00
37764;BME280;23602;51.084;7.090;2023-03-25T13:33:27;98974.69;;;10.78;100.00
37764;BME280;23602;51.084;7.090;2023-03-25T13:38:27;98969.81;;;10.35;100.00
37764;BME280;23602;51.084;7.090;2023-03-25T13:41:09;99007.50;;;10.05;100.00
37764;BME280;23602;51.084;7.090;2023-03-25T13:43:42;99087.53;;;9.85;100.00
37764;BME280;23602;51.084;7.090;2023-03-25T13:46:13;99086.56;;;9.38;100.00
37764;BME280;23602;51.084;7.090;2023-03-25T13:48:42;99088.53;;;8.83;100.00
37764;BME280;23602;51.084;7.090;2023-03-25T13:51:15;99112.88;;;8.64;100.00
37764;BME280;23602;51.084;7.090;2023-03-25T13:53:49;99123.97;;;8.43;100.00
37764;BME280;23602;51.084;7.090;2023-03-25T13:56:20;99148.47;;;8.46;100.00
37764;BME280;23602;51.084;7.090;2023-03-25T13:59:12;99168.56;;;8.31;100.00
37764;BME280;23602;51.084;7.090;2023-03-25T14:01:51;99186.34;;;8.18;100.00
37764;BME280;23602;51.084;7.090;2023-03-25T14:09:51;99178.38;;;8.37;100.00
37764;BME280;23602;51.084;7.090;2023-03-25T14:12:34;99179.25;;;8.55;100.00
37764;BME280;23602;51.084;7.090;2023-03-25T14:15:12;99172.44;;;8.35;100.00
37764;BME280;23602;51.084;7.090;2023-03-25T14:17:39;99182.28;;;8.41;100.00
37764;BME280;23602;51.084;7.090;2023-03-25T14:20:05;99182.44;;;8.46;100.00
37764;BME280;23602;51.084;7.090;2023-03-25T14:22:35;99179.66;;;8.34;100.00
37764;BME280;23602;51.084;7.090;2023-03-25T14:25:03;99195.28;;;8.37;100.00
37764;BME280;23602;51.084;7.090;2023-03-25T14:27:29;99178.84;;;8.34;100.00
37764;BME280;23602;51.084;7.090;2023-03-25T14:30:01;99185.72;;;8.48;100.00
37764;BME280;23602;51.084;7.090;2023-03-25T14:32:37;99186.78;;;8.65;100.00
37764;BME280;23602;51.084;7.090;2023-03-25T14:37:47;99197.34;;;9.39;100.00
37764;BME280;23602;51.084;7.090;2023-03-25T14:40:43;99179.31;;;9.76;100.00
37764;BME280;23602;51.084;7.090;2023-03-25T14:43:31;99153.03;;;9.96;100.00
37764;BME280;23602;51.084;7.090;2023-03-25T14:48:49;99133.41;;;10.37;100.00
37764;BME280;23602;51.084;7.090;2023-03-25T14:54:02;99111.09;;;10.59;100.00
37764;BME280;23602;51.084;7.090;2023-03-25T14:59:30;99088.44;;;10.32;100.00
37764;BME280;23602;51.084;7.090;2023-03-25T15:02:25;99084.94;;;10.32;100.00
37764;BME280;23602;51.084;7.090;2023-03-25T15:04:59;99062.59;;;10.08;100.00
37764;BME280;23602;51.084;7.090;2023-03-25T15:07:40;99060.47;;;9.87;100.00
37764;BME280;23602;51.084;7.090;2023-03-25T15:10:06;99057.66;;;9.82;100.00